createdAt,value
2023-05-07T00:00:52.489Z,15.70
2023-05-07T00:01:55.208Z,15.70
2023-05-07T00:02:58.875Z,15.70
2023-05-07T00:04:01.760Z,15.70
2023-05-07T00:05:06.286Z,15.70
2023-05-07T00:06:08.817Z,15.70
2023-05-07T00:07:12.216Z,15.70
2023-05-07T00:08:14.545Z,15.70
2023-05-07T00:09:18.758Z,15.70
2023-05-07T00:10:21.184Z,15.70
2023-05-07T00:11:24.614Z,15.70
2023-05-07T00:12:27.281Z,15.70
2023-05-07T00:13:31.779Z,15.70
2023-05-07T00:14:34.166Z,15.70
2023-05-07T00:15:37.785Z,15.70
2023-05-07T00:16:41.533Z,15.70
2023-05-07T00:17:44.989Z,15.70
2023-05-07T00:18:47.513Z,15.70
2023-05-07T00:19:51.130Z,15.70
2023-05-07T00:20:53.654Z,15.70
2023-05-07T00:21:57.463Z,15.70
2023-05-07T00:22:59.903Z,15.70
2023-05-07T00:24:03.310Z,15.70
2023-05-07T00:25:07.088Z,15.70
2023-05-07T00:26:15.736Z,15.70
2023-05-07T00:27:19.903Z,15.70
2023-05-07T00:28:23.362Z,15.70
2023-05-07T00:29:26.152Z,15.70
2023-05-07T00:30:29.781Z,15.70
2023-05-07T00:31:32.123Z,15.70
2023-05-07T00:32:37.780Z,15.70
2023-05-07T00:33:40.860Z,15.70
2023-05-07T00:34:45.700Z,15.70
2023-05-07T00:35:48.298Z,15.70
2023-05-07T00:36:51.715Z,15.70
2023-05-07T00:37:54.272Z,15.70
2023-05-07T00:39:00.556Z,15.70
2023-05-07T00:40:05.621Z,15.70
2023-05-07T00:41:09.436Z,15.60
2023-05-07T00:42:11.813Z,15.60
2023-05-07T00:43:16.559Z,15.60
2023-05-07T00:44:20.593Z,15.60
2023-05-07T00:45:25.637Z,15.60
2023-05-07T00:46:28.510Z,15.60
2023-05-07T00:47:32.857Z,15.60
2023-05-07T00:48:36.717Z,15.60
2023-05-07T00:49:43.307Z,15.60
2023-05-07T00:50:46.788Z,15.60
2023-05-07T00:51:50.406Z,15.60
2023-05-07T00:52:53.105Z,15.60
2023-05-07T00:53:57.016Z,15.60
2023-05-07T00:55:01.756Z,15.60
2023-05-07T00:56:07.339Z,15.60
2023-05-07T00:57:12.123Z,15.60
2023-05-07T00:58:15.944Z,15.60
2023-05-07T00:59:18.948Z,15.60
2023-05-07T01:00:22.635Z,15.60
2023-05-07T01:01:25.220Z,15.60
2023-05-07T01:02:28.686Z,15.60
2023-05-07T01:03:31.742Z,15.60
2023-05-07T01:04:37.725Z,15.60
2023-05-07T01:05:40.957Z,15.60
2023-05-07T01:06:46.488Z,15.60
2023-05-07T01:07:49.802Z,15.60
2023-05-07T01:08:54.041Z,15.50
2023-05-07T01:09:56.930Z,15.50
2023-05-07T01:11:01.714Z,15.50
2023-05-07T01:12:05.832Z,15.50
2023-05-07T01:14:12.697Z,15.50
2023-05-07T01:15:16.687Z,15.50
2023-05-07T01:16:19.266Z,15.50
2023-05-07T01:17:23.542Z,15.50
2023-05-07T01:18:26.898Z,15.50
2023-05-07T01:19:32.369Z,15.40
2023-05-07T01:20:36.885Z,15.40
2023-05-07T01:21:40.947Z,15.40
2023-05-07T01:22:46.092Z,15.40
2023-05-07T01:23:50.951Z,15.40
2023-05-07T01:24:53.552Z,15.30
2023-05-07T01:25:57.359Z,15.30
2023-05-07T01:27:02.652Z,15.30
2023-05-07T01:28:08.801Z,15.20
2023-05-07T01:29:13.792Z,15.20
2023-05-07T01:30:19.022Z,15.20
2023-05-07T01:31:22.801Z,15.20
2023-05-07T01:32:37.984Z,15.10
2023-05-07T01:33:43.650Z,15.10
2023-05-07T01:34:48.393Z,15.10
2023-05-07T01:35:54.544Z,15.00
2023-05-07T01:36:59.046Z,15.00
2023-05-07T01:38:07.191Z,14.90
2023-05-07T01:39:12.232Z,14.90
2023-05-07T01:40:15.192Z,14.90
2023-05-07T01:41:18.812Z,14.90
2023-05-07T01:42:22.578Z,14.80
2023-05-07T01:43:26.438Z,14.80
2023-05-07T01:44:31.644Z,14.80
2023-05-07T01:45:36.463Z,14.80
2023-05-07T01:46:39.508Z,14.80
2023-05-07T01:47:43.962Z,14.80
2023-05-07T01:48:47.222Z,14.70
2023-05-07T01:49:51.094Z,14.70
2023-05-07T01:50:54.099Z,14.70
2023-05-07T01:51:57.808Z,14.60
2023-05-07T01:53:00.351Z,14.60
2023-05-07T01:54:06.268Z,14.60
2023-05-07T01:55:09.671Z,14.60
2023-05-07T01:56:13.125Z,14.60
2023-05-07T01:57:17.158Z,14.60
2023-05-07T01:58:20.642Z,14.60
2023-05-07T01:59:24.893Z,14.60
2023-05-07T02:00:28.768Z,14.50
2023-05-07T02:01:31.638Z,14.50
2023-05-07T02:02:35.208Z,14.50
2023-05-07T02:03:38.146Z,14.50
2023-05-07T02:04:50.632Z,14.50
2023-05-07T02:05:54.979Z,14.50
2023-05-07T02:07:13.696Z,14.50
2023-05-07T02:08:16.296Z,14.50
2023-05-07T02:09:21.225Z,14.50
2023-05-07T02:10:25.637Z,14.50
2023-05-07T02:11:29.063Z,14.50
2023-05-07T02:12:31.496Z,14.50
2023-05-07T02:13:36.829Z,14.50
2023-05-07T02:14:39.951Z,14.50
2023-05-07T02:15:43.494Z,14.50
2023-05-07T02:16:46.222Z,14.40
2023-05-07T02:18:05.402Z,14.50
2023-05-07T02:19:08.194Z,14.50
2023-05-07T02:20:14.425Z,14.50
2023-05-07T02:21:17.992Z,14.40
2023-05-07T02:22:21.339Z,14.40
2023-05-07T02:23:23.885Z,14.50
2023-05-07T02:24:29.010Z,14.40
2023-05-07T02:25:33.476Z,14.50
2023-05-07T02:26:36.965Z,14.50
2023-05-07T02:27:39.530Z,14.50
2023-05-07T02:28:43.154Z,14.50
2023-05-07T02:29:46.318Z,14.50
2023-05-07T02:30:49.805Z,14.50
2023-05-07T02:31:54.108Z,14.50
2023-05-07T02:32:57.704Z,14.50
2023-05-07T02:34:00.354Z,14.50
2023-05-07T02:35:03.911Z,14.50
2023-05-07T02:36:11.190Z,14.50
2023-05-07T02:37:21.658Z,14.50
2023-05-07T02:38:24.431Z,14.50
2023-05-07T02:39:29.371Z,14.50
2023-05-07T02:40:34.607Z,14.50
2023-05-07T02:41:37.934Z,14.50
2023-05-07T02:42:40.324Z,14.50
2023-05-07T02:43:44.026Z,14.50
2023-05-07T02:44:48.025Z,14.50
2023-05-07T02:45:51.463Z,14.50
2023-05-07T02:46:53.876Z,14.50
2023-05-07T02:47:57.293Z,14.50
2023-05-07T02:48:59.821Z,14.50
2023-05-07T02:50:03.694Z,14.50
2023-05-07T02:51:06.580Z,14.40
2023-05-07T02:52:11.356Z,14.50
2023-05-07T02:53:13.743Z,14.40
2023-05-07T02:54:17.203Z,14.50
2023-05-07T02:55:21.230Z,14.50
2023-05-07T02:56:24.665Z,14.50
2023-05-07T02:57:28.220Z,14.40
2023-05-07T02:58:31.942Z,14.50
2023-05-07T02:59:36.070Z,14.50
2023-05-07T03:00:39.824Z,14.40
2023-05-07T03:01:54.578Z,14.40
2023-05-07T03:02:58.302Z,14.40
2023-05-07T03:04:00.809Z,14.40
2023-05-07T03:05:04.635Z,14.40
2023-05-07T03:06:08.139Z,14.40
2023-05-07T03:07:11.669Z,14.40
2023-05-07T03:08:14.153Z,14.40
2023-05-07T03:09:18.328Z,14.40
2023-05-07T03:10:22.366Z,14.40
2023-05-07T03:11:26.284Z,14.40
2023-05-07T03:12:28.792Z,14.40
2023-05-07T03:13:32.344Z,14.40
2023-05-07T03:14:34.740Z,14.40
2023-05-07T03:15:38.644Z,14.40
2023-05-07T03:16:41.416Z,14.40
2023-05-07T03:17:44.789Z,14.40
2023-05-07T03:18:48.285Z,14.40
2023-05-07T03:19:50.825Z,14.40
2023-05-07T03:20:54.658Z,14.40
2023-05-07T03:21:57.099Z,14.40
2023-05-07T03:23:00.614Z,14.40
2023-05-07T03:24:03.223Z,14.40
2023-05-07T03:25:08.478Z,14.40
2023-05-07T03:26:12.145Z,14.30
2023-05-07T03:27:15.656Z,14.30
2023-05-07T03:28:18.592Z,14.30
2023-05-07T03:29:29.798Z,14.30
2023-05-07T03:30:32.445Z,14.30
2023-05-07T03:31:35.896Z,14.40
2023-05-07T03:32:38.422Z,14.40
2023-05-07T03:33:54.039Z,14.40
2023-05-07T03:34:57.883Z,14.30
2023-05-07T03:36:00.374Z,14.40
2023-05-07T03:37:04.734Z,14.40
2023-05-07T03:38:07.280Z,14.40
2023-05-07T03:39:12.690Z,14.40
2023-05-07T03:40:17.158Z,14.40
2023-05-07T03:41:27.072Z,14.40
2023-05-07T03:42:31.571Z,14.40
2023-05-07T03:43:34.082Z,14.40
2023-05-07T03:44:43.316Z,14.40
2023-05-07T03:45:45.682Z,14.40
2023-05-07T03:46:54.058Z,14.40
2023-05-07T03:47:56.526Z,14.40
2023-05-07T03:49:00.052Z,14.40
2023-05-07T03:50:02.800Z,14.40
2023-05-07T03:51:06.588Z,14.40
2023-05-07T03:52:09.799Z,14.40
2023-05-07T03:53:13.285Z,14.40
2023-05-07T03:54:16.088Z,14.40
2023-05-07T03:55:22.289Z,14.40
2023-05-07T03:56:30.603Z,14.40
2023-05-07T03:57:35.212Z,14.40
2023-05-07T03:58:37.915Z,14.40
2023-05-07T03:59:45.687Z,14.40
2023-05-07T04:00:48.428Z,14.40
2023-05-07T04:02:05.271Z,14.40
2023-05-07T04:03:08.995Z,14.40
2023-05-07T04:04:12.566Z,14.40
2023-05-07T04:05:16.008Z,14.40
2023-05-07T04:06:20.967Z,14.40
2023-05-07T04:07:24.949Z,14.40
2023-05-07T04:08:28.429Z,14.40
2023-05-07T04:09:31.542Z,14.30
2023-05-07T04:10:35.006Z,14.30
2023-05-07T04:11:42.877Z,14.30
2023-05-07T04:12:47.907Z,14.30
2023-05-07T04:13:55.096Z,14.40
2023-05-07T04:15:00.532Z,14.40
2023-05-07T04:16:05.300Z,14.30
2023-05-07T04:17:11.807Z,14.30
2023-05-07T04:18:14.676Z,14.30
2023-05-07T04:19:20.998Z,14.40
2023-05-07T04:20:27.207Z,14.30
2023-05-07T04:21:38.594Z,14.40
2023-05-07T04:22:40.996Z,14.40
2023-05-07T04:23:44.519Z,14.40
2023-05-07T04:24:48.426Z,14.30
2023-05-07T04:25:52.503Z,14.40
2023-05-07T04:27:03.994Z,14.40
2023-05-07T04:28:07.510Z,14.40
2023-05-07T04:29:10.132Z,14.40
2023-05-07T04:30:15.333Z,14.40
2023-05-07T04:31:17.824Z,14.40
2023-05-07T04:32:26.128Z,14.40
2023-05-07T04:33:29.331Z,14.40
2023-05-07T04:34:34.517Z,14.40
2023-05-07T04:35:38.054Z,14.40
2023-05-07T04:36:42.667Z,14.40
2023-05-07T04:37:47.515Z,14.50
2023-05-07T04:38:51.320Z,14.50
2023-05-07T04:39:55.213Z,14.50
2023-05-07T04:40:59.170Z,14.50
2023-05-07T04:42:04.603Z,14.50
2023-05-07T04:43:08.513Z,14.50
2023-05-07T04:44:16.443Z,14.50
2023-05-07T04:45:20.416Z,14.50
2023-05-07T04:46:25.138Z,14.50
2023-05-07T04:47:29.457Z,14.50
2023-05-07T04:48:32.251Z,14.50
2023-05-07T04:49:37.349Z,14.50
2023-05-07T04:50:40.005Z,14.50
2023-05-07T04:51:45.033Z,14.60
2023-05-07T04:52:48.707Z,14.60
2023-05-07T04:53:52.048Z,14.60
2023-05-07T04:54:54.751Z,14.60
2023-05-07T04:55:59.416Z,14.60
2023-05-07T04:57:09.852Z,14.60
2023-05-07T04:58:12.918Z,14.60
2023-05-07T04:59:17.264Z,14.60
2023-05-07T05:00:20.623Z,14.60
2023-05-07T05:01:26.261Z,14.60
2023-05-07T05:02:28.755Z,14.60
2023-05-07T05:03:32.305Z,14.60
2023-05-07T05:04:36.335Z,14.70
2023-05-07T05:05:41.303Z,14.70
2023-05-07T05:06:44.929Z,14.70
2023-05-07T05:07:48.158Z,14.70
2023-05-07T05:08:51.499Z,14.70
2023-05-07T05:09:54.054Z,14.80
2023-05-07T05:10:57.552Z,14.80
2023-05-07T05:12:00.720Z,14.80
2023-05-07T05:13:05.789Z,14.80
2023-05-07T05:14:08.486Z,14.80
2023-05-07T05:15:13.514Z,14.80
2023-05-07T05:16:16.446Z,14.90
2023-05-07T05:17:19.924Z,14.90
2023-05-07T05:18:22.600Z,14.90
2023-05-07T05:19:26.029Z,14.90
2023-05-07T05:20:28.342Z,14.90
2023-05-07T05:21:31.957Z,14.90
2023-05-07T05:22:40.361Z,15.00
2023-05-07T05:23:44.490Z,15.00
2023-05-07T05:24:48.794Z,15.00
2023-05-07T05:25:52.277Z,15.00
2023-05-07T05:26:55.666Z,15.00
2023-05-07T05:27:59.098Z,15.00
2023-05-07T05:29:02.990Z,15.00
2023-05-07T05:30:10.917Z,15.00
2023-05-07T05:31:15.269Z,15.00
2023-05-07T05:32:18.723Z,15.10
2023-05-07T05:33:21.123Z,15.10
2023-05-07T05:34:24.829Z,15.10
2023-05-07T05:35:27.408Z,15.10
2023-05-07T05:36:31.617Z,15.10
2023-05-07T05:37:34.711Z,15.10
2023-05-07T05:38:40.531Z,15.10
2023-05-07T05:39:44.023Z,15.00
2023-05-07T05:40:47.632Z,15.00
2023-05-07T05:41:49.971Z,15.00
2023-05-07T05:42:53.720Z,15.00
2023-05-07T05:43:56.565Z,15.00
2023-05-07T05:45:01.347Z,15.00
2023-05-07T05:46:05.842Z,15.00
2023-05-07T05:47:09.371Z,15.00
2023-05-07T05:48:11.853Z,15.00
2023-05-07T05:49:15.672Z,15.00
2023-05-07T05:50:18.813Z,15.00
2023-05-07T05:51:23.454Z,14.90
2023-05-07T05:52:26.536Z,14.90
2023-05-07T05:53:31.670Z,14.90
2023-05-07T05:54:34.356Z,14.90
2023-05-07T05:55:37.781Z,15.00
2023-05-07T05:56:40.889Z,14.90
2023-05-07T05:57:44.669Z,15.00
2023-05-07T05:58:48.358Z,15.00
2023-05-07T05:59:51.911Z,15.00
2023-05-07T06:00:56.253Z,15.00
2023-05-07T06:02:01.905Z,15.00
2023-05-07T06:03:05.021Z,15.00
2023-05-07T06:04:08.693Z,15.00
2023-05-07T06:05:11.293Z,15.00
2023-05-07T06:06:15.502Z,15.00
2023-05-07T06:07:18.822Z,15.00
2023-05-07T06:08:22.240Z,15.00
2023-05-07T06:09:24.723Z,15.00
2023-05-07T06:10:28.487Z,15.00
2023-05-07T06:11:32.269Z,15.00
2023-05-07T06:12:35.751Z,15.00
2023-05-07T06:13:38.583Z,15.00
2023-05-07T06:14:42.670Z,15.00
2023-05-07T06:15:45.132Z,15.00
2023-05-07T06:16:51.571Z,15.00
2023-05-07T06:17:54.018Z,15.00
2023-05-07T06:18:57.405Z,15.00
2023-05-07T06:20:00.232Z,15.00
2023-05-07T06:21:03.810Z,15.00
2023-05-07T06:22:08.974Z,15.00
2023-05-07T06:23:12.692Z,15.00
2023-05-07T06:24:14.997Z,15.00
2023-05-07T06:25:18.555Z,15.00
2023-05-07T06:26:21.308Z,15.00
2023-05-07T06:27:25.951Z,15.00
2023-05-07T06:28:29.015Z,15.00
2023-05-07T06:29:33.818Z,15.00
2023-05-07T06:30:37.594Z,15.10
2023-05-07T06:31:41.137Z,15.10
2023-05-07T06:32:46.442Z,15.10
2023-05-07T06:33:51.315Z,15.10
2023-05-07T06:34:54.149Z,15.10
2023-05-07T06:35:57.893Z,15.10
2023-05-07T06:37:00.554Z,15.20
2023-05-07T06:38:14.335Z,15.20
2023-05-07T06:39:17.608Z,15.20
2023-05-07T06:40:21.158Z,15.20
2023-05-07T06:41:24.868Z,15.20
2023-05-07T06:42:28.483Z,15.20
2023-05-07T06:43:35.221Z,15.20
2023-05-07T06:45:05.149Z,15.30
2023-05-07T06:46:07.711Z,15.20
2023-05-07T06:47:13.858Z,15.30
2023-05-07T06:48:19.533Z,15.30
2023-05-07T06:49:30.266Z,15.30
2023-05-07T06:50:32.815Z,15.30
2023-05-07T06:51:36.303Z,15.30
2023-05-07T06:52:39.770Z,15.30
2023-05-07T06:53:43.682Z,15.30
2023-05-07T06:54:47.453Z,15.30
2023-05-07T06:55:53.305Z,15.30
2023-05-07T06:56:56.407Z,15.30
2023-05-07T06:58:02.232Z,15.30
2023-05-07T06:59:05.188Z,15.30
2023-05-07T07:00:14.503Z,15.30
2023-05-07T07:01:26.539Z,15.30
2023-05-07T07:02:30.061Z,15.40
2023-05-07T07:03:33.882Z,15.40
2023-05-07T07:04:37.447Z,15.40
2023-05-07T07:05:43.599Z,15.40
2023-05-07T07:06:47.757Z,15.40
2023-05-07T07:07:53.745Z,15.50
2023-05-07T07:08:57.832Z,15.50
2023-05-07T07:10:00.812Z,15.50
2023-05-07T07:11:05.757Z,15.60
2023-05-07T07:12:08.369Z,15.60
2023-05-07T07:13:14.402Z,15.70
2023-05-07T07:14:16.962Z,15.80
2023-05-07T07:15:26.091Z,15.80
2023-05-07T07:16:29.985Z,15.90
2023-05-07T07:17:33.743Z,16.00
2023-05-07T07:18:38.019Z,16.00
2023-05-07T07:19:41.603Z,16.00
2023-05-07T07:20:45.569Z,16.10
2023-05-07T07:21:48.904Z,16.10
2023-05-07T07:22:51.246Z,16.10
2023-05-07T07:23:54.928Z,16.10
2023-05-07T07:24:57.632Z,16.10
2023-05-07T07:26:01.672Z,16.10
2023-05-07T07:27:04.224Z,16.20
2023-05-07T07:28:11.644Z,16.20
2023-05-07T07:29:14.738Z,16.20
2023-05-07T07:30:20.077Z,16.20
2023-05-07T07:31:24.577Z,16.20
2023-05-07T07:32:28.808Z,16.20
2023-05-07T07:33:31.316Z,16.30
2023-05-07T07:34:36.110Z,16.30
2023-05-07T07:35:38.780Z,16.30
2023-05-07T07:36:46.855Z,16.30
2023-05-07T07:37:53.902Z,16.40
2023-05-07T07:38:56.378Z,16.40
2023-05-07T07:39:59.849Z,16.40
2023-05-07T07:41:02.795Z,16.40
2023-05-07T07:42:07.253Z,16.50
2023-05-07T07:43:09.773Z,16.50
2023-05-07T07:44:16.119Z,16.50
2023-05-07T07:45:23.759Z,16.60
2023-05-07T07:46:27.941Z,16.60
2023-05-07T07:47:34.173Z,16.60
2023-05-07T07:48:37.653Z,16.60
2023-05-07T07:49:41.594Z,16.60
2023-05-07T07:50:47.089Z,16.60
2023-05-07T07:51:53.401Z,16.70
2023-05-07T07:52:56.830Z,16.70
2023-05-07T07:53:59.382Z,16.80
2023-05-07T07:55:02.810Z,16.80
2023-05-07T07:56:06.166Z,16.80
2023-05-07T07:57:11.624Z,16.90
2023-05-07T07:58:14.049Z,16.90
2023-05-07T07:59:19.955Z,16.90
2023-05-07T08:00:23.539Z,17.00
2023-05-07T08:01:32.812Z,17.00
2023-05-07T08:02:36.956Z,17.10
2023-05-07T08:03:40.587Z,17.10
2023-05-07T08:04:45.715Z,17.20
2023-05-07T08:05:48.320Z,17.20
2023-05-07T08:06:51.685Z,17.30
2023-05-07T08:07:54.324Z,17.40
2023-05-07T08:09:03.096Z,17.40
2023-05-07T08:10:06.516Z,17.50
2023-05-07T08:11:10.084Z,17.60
2023-05-07T08:12:12.687Z,17.60
2023-05-07T08:13:16.471Z,17.70
2023-05-07T08:14:19.283Z,17.70
2023-05-07T08:15:24.700Z,17.80
2023-05-07T08:16:31.003Z,17.90
2023-05-07T08:17:36.393Z,18.00
2023-05-07T08:18:39.901Z,18.10
2023-05-07T08:19:42.564Z,18.20
2023-05-07T08:20:50.125Z,18.30
2023-05-07T08:21:57.457Z,18.40
2023-05-07T08:23:02.161Z,18.60
2023-05-07T08:24:05.924Z,18.80
2023-05-07T08:25:10.665Z,19.00
2023-05-07T08:26:13.806Z,19.20
2023-05-07T08:27:17.184Z,19.40
2023-05-07T08:28:20.819Z,19.60
2023-05-07T08:29:24.726Z,19.80
2023-05-07T08:30:27.219Z,20.00
2023-05-07T08:31:30.960Z,20.30
2023-05-07T08:32:33.547Z,20.60
2023-05-07T08:33:37.001Z,20.90
2023-05-07T08:34:40.081Z,21.20
2023-05-07T08:35:43.794Z,21.50
2023-05-07T08:36:49.626Z,21.70
2023-05-07T08:37:56.224Z,21.90
2023-05-07T08:38:59.271Z,22.10
2023-05-07T08:40:03.068Z,22.30
2023-05-07T08:41:12.869Z,22.40
2023-05-07T08:42:18.910Z,22.60
2023-05-07T08:43:23.722Z,22.80
2023-05-07T08:44:29.352Z,23.00
2023-05-07T08:45:37.097Z,23.20
2023-05-07T08:46:40.969Z,23.40
2023-05-07T08:47:48.650Z,23.50
2023-05-07T08:48:54.812Z,23.70
2023-05-07T08:49:57.206Z,23.90
2023-05-07T08:51:01.225Z,24.10
2023-05-07T08:52:06.190Z,24.20
2023-05-07T08:53:10.944Z,24.40
2023-05-07T08:54:17.044Z,24.60
2023-05-07T08:55:22.111Z,24.90
2023-05-07T08:56:24.988Z,25.20
2023-05-07T08:57:30.724Z,25.40
2023-05-07T08:58:33.135Z,25.70
2023-05-07T08:59:37.819Z,26.00
2023-05-07T09:00:41.426Z,26.30
2023-05-07T09:01:45.321Z,26.50
2023-05-07T09:02:48.337Z,26.80
2023-05-07T09:03:53.881Z,27.00
2023-05-07T09:04:57.331Z,27.20
2023-05-07T09:06:00.968Z,27.50
2023-05-07T09:07:06.408Z,27.70
2023-05-07T09:08:17.883Z,27.90
2023-05-07T09:09:23.630Z,28.00
2023-05-07T09:10:32.049Z,28.20
2023-05-07T09:11:34.631Z,28.30
2023-05-07T09:12:40.269Z,28.30
2023-05-07T09:13:44.717Z,28.40
2023-05-07T09:14:48.363Z,28.40
2023-05-07T09:15:51.790Z,28.40
2023-05-07T09:16:55.772Z,28.40
2023-05-07T09:18:02.543Z,28.50
2023-05-07T09:19:10.623Z,28.60
2023-05-07T09:20:14.402Z,28.70
2023-05-07T09:21:18.052Z,28.90
2023-05-07T09:22:23.094Z,29.10
2023-05-07T09:23:33.874Z,29.30
2023-05-07T09:24:38.664Z,29.50
2023-05-07T09:25:44.427Z,29.50
2023-05-07T09:26:54.081Z,29.60
2023-05-07T09:27:57.674Z,29.60
2023-05-07T09:29:01.089Z,29.60
2023-05-07T09:30:08.528Z,29.70
2023-05-07T09:31:13.750Z,29.70
2023-05-07T09:32:18.023Z,29.80
2023-05-07T09:33:20.641Z,29.90
2023-05-07T09:34:27.343Z,30.00
2023-05-07T09:35:32.809Z,30.00
2023-05-07T09:36:41.743Z,30.00
2023-05-07T09:37:45.797Z,30.10
2023-05-07T09:38:52.454Z,30.20
2023-05-07T09:39:55.421Z,30.30
2023-05-07T09:41:08.189Z,30.40
2023-05-07T09:42:17.311Z,30.40
2023-05-07T09:43:21.800Z,30.60
2023-05-07T09:45:35.961Z,30.90
2023-05-07T09:46:41.119Z,31.00
2023-05-07T09:47:56.171Z,31.20
2023-05-07T09:49:02.645Z,31.30
2023-05-07T09:50:11.643Z,31.40
2023-05-07T09:52:34.233Z,31.70
2023-05-07T09:53:42.549Z,31.70
2023-05-07T09:54:46.311Z,31.80
2023-05-07T09:55:51.600Z,32.00
2023-05-07T09:56:57.118Z,32.10
2023-05-07T09:58:04.595Z,32.20
2023-05-07T09:59:08.204Z,32.10
2023-05-07T10:00:14.075Z,32.10
2023-05-07T10:01:27.374Z,32.00
2023-05-07T10:02:31.800Z,31.80
2023-05-07T10:03:37.508Z,31.60
2023-05-07T10:04:43.386Z,31.40
2023-05-07T10:05:47.241Z,31.30
2023-05-07T10:06:51.216Z,31.10
2023-05-07T10:07:55.326Z,31.00
2023-05-07T10:09:02.205Z,31.00
2023-05-07T10:10:06.015Z,30.90
2023-05-07T10:11:15.960Z,30.80
2023-05-07T10:12:19.672Z,30.80
2023-05-07T10:13:24.009Z,30.70
2023-05-07T10:14:30.645Z,30.70
2023-05-07T10:15:34.799Z,30.60
2023-05-07T10:16:39.857Z,30.40
2023-05-07T10:17:47.883Z,30.30
2023-05-07T10:18:53.092Z,30.20
2023-05-07T10:19:58.462Z,30.00
2023-05-07T10:21:19.730Z,29.90
2023-05-07T10:22:25.296Z,29.80
2023-05-07T10:23:30.864Z,29.60
2023-05-07T10:24:37.910Z,29.50
2023-05-07T10:25:47.362Z,29.40
2023-05-07T10:27:01.465Z,29.40
2023-05-07T10:28:09.826Z,29.50
2023-05-07T10:29:33.348Z,29.50
2023-05-07T10:30:54.978Z,29.60
2023-05-07T10:32:11.387Z,29.70
2023-05-07T10:33:19.203Z,29.90
2023-05-07T10:34:26.884Z,30.10
2023-05-07T10:35:38.154Z,30.30
2023-05-07T10:36:41.070Z,30.40
2023-05-07T10:37:46.960Z,30.50
2023-05-07T10:38:49.451Z,30.70
2023-05-07T10:39:55.317Z,30.90
2023-05-07T10:40:57.938Z,31.00
2023-05-07T10:42:11.269Z,31.10
2023-05-07T10:43:16.858Z,31.30
2023-05-07T10:44:29.098Z,31.50
2023-05-07T10:45:35.330Z,31.60
2023-05-07T10:46:41.027Z,31.70
2023-05-07T10:48:28.161Z,31.80
2023-05-07T10:49:38.632Z,32.00
2023-05-07T10:50:46.295Z,32.10
2023-05-07T10:52:15.518Z,32.30
2023-05-07T10:53:27.030Z,32.30
2023-05-07T10:54:39.901Z,32.40
2023-05-07T10:55:49.953Z,32.40
2023-05-07T10:56:57.371Z,32.40
2023-05-07T10:59:45.072Z,32.10
2023-05-07T11:01:01.129Z,32.00
2023-05-07T11:02:12.420Z,31.90
2023-05-07T11:03:29.623Z,31.80
2023-05-07T11:04:36.714Z,31.90
2023-05-07T11:05:48.378Z,32.00
2023-05-07T11:07:27.186Z,32.00
2023-05-07T11:08:56.498Z,32.00
2023-05-07T11:10:07.168Z,31.80
2023-05-07T11:11:53.122Z,31.80
2023-05-07T11:14:14.901Z,31.40
2023-05-07T11:15:45.481Z,31.30
2023-05-07T11:17:15.587Z,31.20
2023-05-07T11:18:24.001Z,30.90
2023-05-07T11:19:52.422Z,30.80
2023-05-07T11:21:07.901Z,30.50
2023-05-07T11:22:40.976Z,30.30
2023-05-07T11:24:03.172Z,30.10
2023-05-07T11:25:19.262Z,29.90
2023-05-07T11:26:23.342Z,29.80
2023-05-07T11:27:28.744Z,29.70
2023-05-07T11:28:38.976Z,29.70
2023-05-07T11:29:48.723Z,29.70
2023-05-07T11:30:51.810Z,29.70
2023-05-07T11:31:58.892Z,29.80
2023-05-07T11:33:06.454Z,29.80
2023-05-07T11:34:11.641Z,29.80
2023-05-07T11:35:18.560Z,29.90
2023-05-07T11:36:26.110Z,29.90
2023-05-07T11:37:31.664Z,29.90
2023-05-07T11:38:38.701Z,29.80
2023-05-07T11:39:42.013Z,29.90
2023-05-07T11:40:51.811Z,29.90
2023-05-07T11:41:55.266Z,29.90
2023-05-07T11:42:59.116Z,29.90
2023-05-07T11:44:02.916Z,30.00
2023-05-07T11:45:07.534Z,30.10
2023-05-07T11:46:12.635Z,30.20
2023-05-07T11:47:22.891Z,30.30
2023-05-07T11:48:25.540Z,30.40
2023-05-07T11:49:30.788Z,30.50
2023-05-07T11:50:33.242Z,30.50
2023-05-07T11:51:36.814Z,30.60
2023-05-07T11:52:40.147Z,30.70
2023-05-07T11:53:45.099Z,30.80
2023-05-07T11:54:52.025Z,30.80
2023-05-07T11:55:54.506Z,30.90
2023-05-07T11:57:00.733Z,31.00
2023-05-07T11:58:05.826Z,31.10
2023-05-07T11:59:08.177Z,31.30
2023-05-07T12:00:13.328Z,31.40
2023-05-07T12:01:17.624Z,31.50
2023-05-07T12:02:21.967Z,31.50
2023-05-07T12:03:24.701Z,31.60
2023-05-07T12:04:28.350Z,31.70
2023-05-07T12:05:30.873Z,31.90
2023-05-07T12:06:38.621Z,32.00
2023-05-07T12:07:41.109Z,32.00
2023-05-07T12:08:47.917Z,32.10
2023-05-07T12:09:51.362Z,32.10
2023-05-07T12:10:57.185Z,32.10
2023-05-07T12:12:07.753Z,32.20
2023-05-07T12:13:17.367Z,32.30
2023-05-07T12:14:20.952Z,32.40
2023-05-07T12:15:24.621Z,32.60
2023-05-07T12:16:28.826Z,32.60
2023-05-07T12:17:31.436Z,32.70
2023-05-07T12:18:37.289Z,32.80
2023-05-07T12:19:42.559Z,32.80
2023-05-07T12:20:46.724Z,33.00
2023-05-07T12:21:50.318Z,33.00
2023-05-07T12:22:53.357Z,33.10
2023-05-07T12:23:57.171Z,33.10
2023-05-07T12:25:00.526Z,33.20
2023-05-07T12:26:07.078Z,33.10
2023-05-07T12:27:11.030Z,33.00
2023-05-07T12:28:17.696Z,32.90
2023-05-07T12:29:24.611Z,32.80
2023-05-07T12:30:27.032Z,32.80
2023-05-07T12:31:30.468Z,32.70
2023-05-07T12:32:37.484Z,32.60
2023-05-07T12:33:41.849Z,32.50
2023-05-07T12:34:45.939Z,32.40
2023-05-07T12:35:51.153Z,32.40
2023-05-07T12:36:55.137Z,32.30
2023-05-07T12:37:57.746Z,32.30
2023-05-07T12:39:02.952Z,32.20
2023-05-07T12:40:07.391Z,32.10
2023-05-07T12:41:13.397Z,32.10
2023-05-07T12:42:17.595Z,32.00
2023-05-07T12:43:23.602Z,31.90
2023-05-07T12:44:29.806Z,31.70
2023-05-07T12:45:33.454Z,31.60
2023-05-07T12:46:41.462Z,31.40
2023-05-07T12:47:46.206Z,31.30
2023-05-07T12:48:50.410Z,31.10
2023-05-07T12:49:52.878Z,31.00
2023-05-07T12:50:57.766Z,30.90
2023-05-07T12:52:00.836Z,30.80
2023-05-07T12:53:07.266Z,30.60
2023-05-07T12:54:10.655Z,30.50
2023-05-07T12:55:16.703Z,30.40
2023-05-07T12:56:20.110Z,30.30
2023-05-07T12:57:22.692Z,30.20
2023-05-07T12:58:29.688Z,30.00
2023-05-07T12:59:37.268Z,30.00
2023-05-07T13:00:41.335Z,29.80
2023-05-07T13:01:48.295Z,29.70
2023-05-07T13:02:50.664Z,29.60
2023-05-07T13:03:54.185Z,29.60
2023-05-07T13:04:56.676Z,29.50
2023-05-07T13:06:02.015Z,29.40
2023-05-07T13:07:04.341Z,29.30
2023-05-07T13:08:07.703Z,29.30
2023-05-07T13:09:11.080Z,29.20
2023-05-07T13:10:13.515Z,29.20
2023-05-07T13:11:16.867Z,29.10
2023-05-07T13:12:19.497Z,29.10
2023-05-07T13:13:23.120Z,29.00
2023-05-07T13:14:26.919Z,29.00
2023-05-07T13:15:30.384Z,29.00
2023-05-07T13:16:33.821Z,29.00
2023-05-07T13:17:36.411Z,29.00
2023-05-07T13:18:44.915Z,29.00
2023-05-07T13:19:47.710Z,29.00
2023-05-07T13:20:51.126Z,29.00
2023-05-07T13:21:53.541Z,29.00
2023-05-07T13:22:57.112Z,29.00
2023-05-07T13:24:00.586Z,29.00
2023-05-07T13:25:02.979Z,29.00
2023-05-07T13:26:14.641Z,29.10
2023-05-07T13:27:27.648Z,29.10
2023-05-07T13:28:31.230Z,29.10
2023-05-07T13:29:35.023Z,29.10
2023-05-07T13:30:38.351Z,29.10
2023-05-07T13:31:43.804Z,29.00
2023-05-07T13:32:48.919Z,29.00
2023-05-07T13:33:51.600Z,29.00
2023-05-07T13:34:55.237Z,29.00
2023-05-07T13:35:58.201Z,29.00
2023-05-07T13:37:01.934Z,28.90
2023-05-07T13:38:04.371Z,28.90
2023-05-07T13:39:08.269Z,28.80
2023-05-07T13:40:12.377Z,28.80
2023-05-07T13:41:16.201Z,28.80
2023-05-07T13:42:19.101Z,28.70
2023-05-07T13:43:22.672Z,28.70
2023-05-07T13:44:25.397Z,28.60
2023-05-07T13:45:31.195Z,28.60
2023-05-07T13:46:33.995Z,28.50
2023-05-07T13:47:40.470Z,28.50
2023-05-07T13:48:42.937Z,28.40
2023-05-07T13:49:46.411Z,28.40
2023-05-07T13:50:48.787Z,28.30
2023-05-07T13:51:52.370Z,28.20
2023-05-07T13:52:55.859Z,28.20
2023-05-07T13:53:59.526Z,28.20
2023-05-07T13:55:03.050Z,28.10
2023-05-07T13:56:06.438Z,28.00
2023-05-07T13:57:10.047Z,27.90
2023-05-07T13:58:13.524Z,27.80
2023-05-07T13:59:16.269Z,27.70
2023-05-07T14:00:19.802Z,27.70
2023-05-07T14:01:26.041Z,27.60
2023-05-07T14:02:29.513Z,27.50
2023-05-07T14:03:33.897Z,27.50
2023-05-07T14:04:38.591Z,27.40
2023-05-07T14:05:41.675Z,27.40
2023-05-07T14:06:45.103Z,27.30